Time;durP1;ratioP1;P1;durP2;ratioP2;P2;SDS_P1;SDS_P2;PMS_P1;PMS_P2;Temp;Humidity;BMP_temperature;BMP_pressure;BME280_temperature;BME280_humidity;BME280_pressure;Samples;Min_cycle;Max_cycle;Signal;HPM_P1;HPM_P2
2023/04/11 00:01:45;;;;;;;10.80;5.93;;;;;;;10.07;100.00;100972.16;5003074;28;20188;-70
2023/04/11 00:04:11;;;;;;;10.30;5.83;;;;;;;10.14;100.00;100996.34;5004941;28;22255;-71
2023/04/11 00:06:36;;;;;;;14.43;6.20;;;;;;;9.83;100.00;100964.50;5005031;28;20499;-70
2023/04/11 00:09:02;;;;;;;8.33;4.10;;;;;;;9.70;100.00;100998.16;4988904;28;20216;-70
2023/04/11 00:11:27;;;;;;;9.13;3.57;;;;;;;9.55;100.00;101016.13;5010480;28;20203;-70
2023/04/11 00:13:56;;;;;;;9.97;3.73;;;;;;;9.32;100.00;101023.47;5008408;28;21436;-70
2023/04/11 00:16:23;;;;;;;10.00;4.30;;;;;;;8.95;100.00;100963.69;5005167;28;20357;-70
2023/04/11 00:18:49;;;;;;;9.30;4.00;;;;;;;9.33;100.00;101028.59;5005159;28;20463;-70
2023/04/11 00:21:15;;;;;;;6.10;2.93;;;;;;;8.64;100.00;100939.78;5010370;28;20428;-70
2023/04/11 00:23:40;;;;;;;9.10;3.10;;;;;;;8.46;100.00;100932.09;5006542;28;20451;-70
2023/04/11 00:26:06;;;;;;;3.83;2.30;;;;;;;8.95;100.00;101047.44;5002816;28;20223;-70
2023/04/11 00:28:32;;;;;;;6.97;2.00;;;;;;;8.77;100.00;101049.63;5003951;28;20583;-70
2023/04/11 00:30:57;;;;;;;7.30;2.00;;;;;;;7.65;100.00;100923.75;5001078;28;20501;-70
2023/04/11 00:33:23;;;;;;;5.37;1.53;;;;;;;8.38;100.00;101024.72;5000805;28;20185;-71
2023/04/11 00:35:48;;;;;;;8.10;1.70;;;;;;;8.51;100.00;101092.81;4999343;28;20219;-71
2023/04/11 00:38:14;;;;;;;5.60;1.63;;;;;;;7.66;100.00;100992.97;5003480;28;20181;-70
2023/04/11 00:40:39;;;;;;;6.80;1.43;;;;;;;7.77;100.00;100989.06;5005729;28;20855;-71
2023/04/11 00:43:05;;;;;;;3.17;1.40;;;;;;;8.26;100.00;101066.22;5001663;28;20678;-71
2023/04/11 00:45:31;;;;;;;3.53;1.37;;;;;;;7.07;100.00;100885.91;5004396;28;20197;-70
2023/04/11 00:47:56;;;;;;;6.20;1.77;;;;;;;8.02;100.00;101000.44;5002498;28;20207;-70
2023/04/11 00:50:23;;;;;;;3.73;1.10;;;;;;;7.90;100.00;100992.00;5003975;28;20961;-70
2023/04/11 00:52:50;;;;;;;3.90;1.30;;;;;;;8.12;100.00;101013.53;5004484;28;20189;-70
2023/04/11 00:55:15;;;;;;;2.93;1.30;;;;;;;7.83;100.00;100905.56;4983985;28;20442;-70
2023/04/11 00:57:42;;;;;;;4.50;1.17;;;;;;;8.38;100.00;101000.66;4982648;28;20850;-69
2023/04/11 01:00:11;;;;;;;3.33;1.10;;;;;;;8.08;100.00;100918.75;4998503;28;20177;-70
2023/04/11 01:02:41;;;;;;;3.03;0.97;;;;;;;8.48;100.00;100957.66;5001648;28;20614;-71
2023/04/11 01:05:11;;;;;;;1.73;1.03;;;;;;;8.08;100.00;100932.09;4984266;28;20448;-70
2023/04/11 01:07:40;;;;;;;3.03;0.90;;;;;;;7.98;100.00;100902.94;5005149;28;20500;-70
2023/04/11 01:10:06;;;;;;;2.60;1.00;;;;;;;8.32;100.00;100985.31;4999022;28;20562;-70
2023/04/11 01:12:33;;;;;;;6.17;1.10;;;;;;;8.22;100.00;100938.50;5001469;28;20467;-70
2023/04/11 01:14:58;;;;;;;2.70;0.90;;;;;;;7.89;100.00;100928.88;5002171;28;20513;-71
2023/04/11 01:17:27;;;;;;;2.63;1.30;;;;;;;7.91;100.00;100934.88;5002189;28;20946;-70
2023/04/11 01:19:52;;;;;;;2.60;1.23;;;;;;;8.15;100.00;100928.50;5006134;28;20192;-70
2023/04/11 01:22:21;;;;;;;4.37;1.90;;;;;;;8.06;100.00;100974.19;5005860;28;20453;-70
2023/04/11 01:24:47;;;;;;;4.33;1.40;;;;;;;7.25;100.00;100861.63;5005321;28;20647;-70
2023/04/11 01:27:13;;;;;;;4.20;1.20;;;;;;;7.65;100.00;100897.03;5006058;28;20444;-70
2023/04/11 01:29:38;;;;;;;3.73;1.03;;;;;;;7.63;100.00;100915.06;5005976;28;20213;-69
2023/04/11 01:32:04;;;;;;;4.50;2.13;;;;;;;7.97;100.00;100972.59;5003940;28;20279;-70
2023/04/11 01:34:32;;;;;;;5.20;1.83;;;;;;;7.57;100.00;100862.41;5006296;28;20185;-70
2023/04/11 01:36:57;;;;;;;5.47;1.53;;;;;;;8.37;100.00;100982.94;4987622;28;20945;-70
2023/04/11 01:39:23;;;;;;;4.90;1.20;;;;;;;8.04;100.00;100997.56;4995573;28;20436;-71
2023/04/11 01:41:49;;;;;;;4.87;1.33;;;;;;;7.88;100.00;100987.84;5001639;28;20544;-70
2023/04/11 01:44:15;;;;;;;6.83;1.60;;;;;;;7.54;100.00;100926.81;4998221;28;20189;-70
2023/04/11 01:46:41;;;;;;;4.70;1.73;;;;;;;7.78;100.00;100963.19;4999619;28;20847;-70
2023/04/11 01:49:07;;;;;;;8.53;1.50;;;;;;;7.90;100.00;100983.97;5000564;28;20208;-70
2023/04/11 01:51:32;;;;;;;6.63;1.73;;;;;;;7.79;100.00;100946.19;4998788;28;20440;-71
2023/04/11 01:53:58;;;;;;;12.37;2.03;;;;;;;7.81;100.00;100981.53;4996901;28;20205;-70
2023/04/11 01:56:23;;;;;;;7.57;1.50;;;;;;;7.54;100.00;100929.50;4996008;28;20260;-71
2023/04/11 01:58:49;;;;;;;8.17;1.90;;;;;;;8.06;100.00;100998.22;4996361;28;20271;-71
2023/04/11 02:01:18;;;;;;;5.60;1.80;;;;;;;7.89;100.00;100998.31;4976779;28;20181;-71
2023/04/11 02:03:44;;;;;;;6.03;1.70;;;;;;;8.09;100.00;100993.34;4993798;28;20195;-70
2023/04/11 02:06:10;;;;;;;5.20;1.70;;;;;;;7.93;100.00;100994.31;4975822;28;20468;-70
2023/04/11 02:08:35;;;;;;;10.60;2.00;;;;;;;7.64;100.00;100970.16;4994363;28;20545;-71
2023/04/11 02:11:01;;;;;;;17.03;3.10;;;;;;;7.73;100.00;100965.59;4998223;28;20195;-70
2023/04/11 02:13:26;;;;;;;9.27;1.93;;;;;;;7.73;100.00;100998.44;4997608;28;20605;-70
2023/04/11 02:15:51;;;;;;;9.93;1.80;;;;;;;7.47;100.00;100940.03;5001413;28;20212;-70
2023/04/11 02:18:17;;;;;;;6.57;2.00;;;;;;;7.41;100.00;100906.88;5000598;28;20251;-71
2023/04/11 02:20:42;;;;;;;9.30;1.87;;;;;;;7.65;100.00;101011.84;4994866;28;20234;-70
2023/04/11 02:23:08;;;;;;;8.43;1.93;;;;;;;7.67;100.00;100981.28;4999666;28;20184;-70
2023/04/11 02:25:33;;;;;;;12.03;2.40;;;;;;;7.94;100.00;101008.50;4994792;28;20204;-70
2023/04/11 02:27:59;;;;;;;9.70;2.07;;;;;;;7.88;100.00;101020.72;5001016;28;20196;-69
2023/04/11 02:30:25;;;;;;;10.80;1.80;;;;;;;7.17;100.00;100902.50;4997153;28;20747;-70
2023/04/11 02:32:50;;;;;;;7.87;2.20;;;;;;;7.62;100.00;100938.28;5000374;28;20450;-70
2023/04/11 02:35:16;;;;;;;10.00;2.73;;;;;;;7.90;100.00;101008.03;5001900;28;20197;-70
2023/04/11 02:37:42;;;;;;;4.80;1.60;;;;;;;7.94;100.00;101011.16;5005556;28;20204;-70
2023/04/11 02:40:08;;;;;;;8.57;2.07;;;;;;;7.62;100.00;100975.66;5006434;28;20432;-70
2023/04/11 02:42:34;;;;;;;4.97;1.77;;;;;;;8.05;100.00;101004.59;5001491;28;20193;-71
2023/04/11 02:45:00;;;;;;;6.10;1.73;;;;;;;7.52;100.00;100966.19;5005143;28;22624;-70
2023/04/11 02:47:26;;;;;;;6.33;1.97;;;;;;;7.73;100.00;101010.97;4987019;28;20458;-70
2023/04/11 02:49:51;;;;;;;7.17;2.00;;;;;;;8.02;100.00;101010.28;5001343;28;20288;-70
2023/04/11 02:52:17;;;;;;;3.90;1.50;;;;;;;7.87;100.00;101016.38;5007007;28;20268;-70
2023/04/11 02:54:44;;;;;;;8.10;2.40;;;;;;;7.83;100.00;101012.38;5005368;28;20197;-70
2023/04/11 02:57:10;;;;;;;11.60;1.83;;;;;;;7.75;100.00;101011.59;4989879;28;20470;-70
2023/04/11 02:59:36;;;;;;;7.00;1.77;;;;;;;7.71;100.00;100987.09;5006206;28;21052;-71
2023/04/11 03:02:01;;;;;;;7.23;1.80;;;;;;;7.88;100.00;101019.88;5000751;28;20448;-70
2023/04/11 03:04:27;;;;;;;7.90;2.00;;;;;;;7.63;100.00;101011.19;5003992;28;20667;-71
2023/04/11 03:06:52;;;;;;;10.20;2.70;;;;;;;7.84;100.00;101023.91;5007645;28;20196;-70
2023/04/11 03:09:19;;;;;;;5.37;1.63;;;;;;;7.69;100.00;100995.31;5006682;28;20702;-70
2023/04/11 03:11:44;;;;;;;3.80;1.43;;;;;;;7.66;100.00;100981.47;5005249;28;20185;-70
2023/04/11 03:14:10;;;;;;;6.70;1.53;;;;;;;7.77;100.00;101015.78;5005599;28;20451;-70
2023/04/11 03:16:35;;;;;;;6.83;1.40;;;;;;;7.81;100.00;101030.44;5004117;28;20213;-70
2023/04/11 03:19:01;;;;;;;5.53;1.13;;;;;;;7.78;100.00;101030.81;4980711;28;20275;-70
2023/04/11 03:21:26;;;;;;;3.93;1.17;;;;;;;7.82;100.00;101015.25;4986455;28;20185;-70
2023/04/11 03:23:52;;;;;;;3.90;1.03;;;;;;;7.84;100.00;101037.25;5007177;28;20212;-70
2023/04/11 03:26:18;;;;;;;3.87;1.00;;;;;;;7.83;100.00;101046.28;5009084;28;20201;-70
2023/04/11 03:28:44;;;;;;;2.93;1.20;;;;;;;7.74;100.00;101042.81;5006678;28;20299;-70
2023/04/11 03:31:10;;;;;;;4.10;1.37;;;;;;;7.74;100.00;101036.66;5008635;28;20194;-70
2023/04/11 03:33:36;;;;;;;1.97;0.80;;;;;;;6.77;100.00;100899.03;4989816;28;20498;-71
2023/04/11 03:36:02;;;;;;;1.77;1.03;;;;;;;7.73;100.00;101032.34;5003546;28;20468;-71
2023/04/11 03:38:28;;;;;;;1.40;0.70;;;;;;;7.57;100.00;101022.56;5007484;28;20443;-70
2023/04/11 03:40:53;;;;;;;1.63;0.70;;;;;;;7.50;100.00;101034.94;5009391;28;20973;-71
2023/04/11 03:43:19;;;;;;;3.27;0.87;;;;;;;7.37;100.00;101051.50;5000925;28;20181;-70
2023/04/11 03:45:44;;;;;;;1.83;0.80;;;;;;;7.58;100.00;101046.44;5001203;28;20205;-70
2023/04/11 03:48:10;;;;;;;2.13;0.70;;;;;;;7.48;100.00;101048.47;5010767;28;20185;-70
2023/04/11 03:50:36;;;;;;;2.10;0.70;;;;;;;7.68;100.00;101041.69;5006858;28;20552;-70
2023/04/11 03:53:02;;;;;;;2.37;0.60;;;;;;;7.64;100.00;101063.59;5004860;28;20451;-70
2023/04/11 03:55:27;;;;;;;1.83;0.70;;;;;;;7.31;100.00;101023.66;5002702;28;20444;-70
2023/04/11 03:57:53;;;;;;;4.97;1.10;;;;;;;7.46;100.00;101069.13;5006830;28;20581;-71
2023/04/11 04:00:19;;;;;;;3.23;1.13;;;;;;;7.11;100.00;100969.88;4983658;28;20189;-70
2023/04/11 04:02:45;;;;;;;5.60;1.20;;;;;;;7.66;100.00;101050.88;5000434;28;20220;-70
2023/04/11 04:05:10;;;;;;;2.83;1.10;;;;;;;7.82;100.00;101071.34;4999591;28;20538;-70
2023/04/11 04:07:36;;;;;;;5.47;1.40;;;;;;;7.91;100.00;101076.44;4976223;28;20291;-70
2023/04/11 04:10:02;;;;;;;6.00;1.40;;;;;;;7.77;100.00;101092.38;4977330;28;20254;-70
2023/04/11 04:12:27;;;;;;;6.50;1.70;;;;;;;7.68;100.00;101032.84;5001828;28;20190;-71
2023/04/11 04:14:53;;;;;;;3.63;1.23;;;;;;;7.63;100.00;101065.41;5003782;28;20196;-71
2023/04/11 04:17:18;;;;;;;3.80;1.30;;;;;;;7.19;100.00;100955.69;4981960;28;20722;-70
2023/04/11 04:19:44;;;;;;;5.23;1.70;;;;;;;7.85;100.00;101090.50;5005429;28;20169;-70
2023/04/11 04:22:12;;;;;;;3.83;1.40;;;;;;;7.37;100.00;101016.81;5008287;28;20276;-71
2023/04/11 04:24:40;;;;;;;6.00;1.57;;;;;;;7.88;100.00;101089.31;5005094;28;20193;-70
2023/04/11 04:27:09;;;;;;;8.00;2.20;;;;;;;7.54;100.00;101045.09;5005209;28;20455;-71
2023/04/11 04:29:44;;;;;;;4.33;1.70;;;;;;;7.83;100.00;101103.19;5003366;28;20502;-70
2023/04/11 04:32:21;;;;;;;5.13;2.03;;;;;;;7.22;100.00;100979.34;5003268;28;20432;-70
2023/04/11 04:34:49;;;;;;;5.83;1.77;;;;;;;7.11;100.00;100988.56;5003308;28;21204;-70
2023/04/11 04:37:22;;;;;;;7.67;2.63;;;;;;;7.99;100.00;101104.97;5010436;28;20984;-71
2023/04/11 04:39:55;;;;;;;6.93;1.90;;;;;;;7.91;100.00;101113.84;5005468;28;20908;-71
2023/04/11 04:42:25;;;;;;;5.00;1.70;;;;;;;7.87;100.00;101131.22;5007056;28;20479;-71
2023/04/11 04:44:52;;;;;;;7.87;1.80;;;;;;;7.83;100.00;101091.69;5000425;28;20536;-70
2023/04/11 04:47:18;;;;;;;3.80;1.50;;;;;;;7.28;100.00;101028.53;5001661;28;20451;-71
2023/04/11 04:49:45;;;;;;;3.70;1.70;;;;;;;7.81;100.00;101107.91;4987950;28;21048;-70
2023/04/11 04:52:11;;;;;;;6.47;2.23;;;;;;;7.86;100.00;101120.72;4981425;28;20681;-70
2023/04/11 04:54:37;;;;;;;5.17;2.50;;;;;;;7.59;100.00;101077.44;5002649;28;21037;-71
2023/04/11 04:57:02;;;;;;;6.17;2.10;;;;;;;8.03;100.00;101126.81;5000585;28;20694;-70
2023/04/11 04:59:28;;;;;;;7.10;2.13;;;;;;;8.06;100.00;101126.47;5002673;28;20205;-71
2023/04/11 05:01:54;;;;;;;10.77;2.60;;;;;;;7.75;100.00;101119.25;4992606;28;20527;-70
2023/04/11 05:04:19;;;;;;;7.50;1.97;;;;;;;8.02;100.00;101139.34;5009237;28;20550;-70
2023/04/11 05:06:45;;;;;;;5.67;2.60;;;;;;;7.98;100.00;101139.84;5006902;28;20207;-71
2023/04/11 05:09:10;;;;;;;6.10;2.23;;;;;;;7.74;100.00;101104.25;5005382;28;20216;-71
2023/04/11 05:11:36;;;;;;;8.13;2.20;;;;;;;7.73;100.00;101118.59;5008051;28;20193;-71
2023/04/11 05:14:01;;;;;;;7.67;2.00;;;;;;;7.43;100.00;101085.50;5007475;28;20181;-71
2023/04/11 05:16:27;;;;;;;9.50;2.40;;;;;;;7.70;100.00;101125.13;5008128;28;20741;-71
2023/04/11 05:18:52;;;;;;;9.73;2.23;;;;;;;7.59;100.00;101095.31;5007590;28;20184;-70
2023/04/11 05:21:17;;;;;;;5.50;2.03;;;;;;;7.59;100.00;101112.16;5009418;28;20255;-70
2023/04/11 05:23:43;;;;;;;10.73;2.60;;;;;;;7.98;100.00;101143.34;5007096;28;20189;-70
2023/04/11 05:26:10;;;;;;;9.50;2.70;;;;;;;7.73;100.00;101081.22;5007401;28;20320;-70
2023/04/11 05:28:36;;;;;;;7.10;2.60;;;;;;;8.17;100.00;101141.28;5006734;28;20231;-70
2023/04/11 05:31:01;;;;;;;5.80;2.00;;;;;;;8.14;100.00;101145.94;5008561;28;20424;-69
2023/04/11 05:33:27;;;;;;;9.77;2.80;;;;;;;8.06;100.00;101150.50;5006765;28;20849;-70
2023/04/11 05:35:53;;;;;;;8.23;2.63;;;;;;;7.99;100.00;101121.00;5006417;28;20604;-70
2023/04/11 05:38:19;;;;;;;10.17;2.43;;;;;;;7.85;100.00;101117.22;5007279;28;20411;-70
2023/04/11 05:40:44;;;;;;;8.93;2.43;;;;;;;8.04;100.00;101141.81;5008676;28;20849;-70
2023/04/11 05:43:13;;;;;;;8.03;2.27;;;;;;;7.64;100.00;101059.06;5007183;28;20189;-70
2023/04/11 05:45:46;;;;;;;9.20;2.20;;;;;;;7.98;100.00;101121.16;4986815;28;21047;-70
2023/04/11 05:48:15;;;;;;;7.17;2.50;;;;;;;7.82;100.00;101106.88;5006058;28;20914;-70
2023/04/11 05:50:40;;;;;;;7.93;2.27;;;;;;;7.78;100.00;101102.03;5008575;28;20567;-71
2023/04/11 05:53:06;;;;;;;5.20;1.80;;;;;;;7.83;100.00;101103.19;5006333;28;20514;-71
2023/04/11 05:55:32;;;;;;;7.03;2.30;;;;;;;8.01;100.00;101140.31;5007846;28;20197;-70
2023/04/11 05:57:57;;;;;;;8.03;2.23;;;;;;;8.05;100.00;101128.31;4990717;28;20222;-70
2023/04/11 06:00:24;;;;;;;8.10;2.30;;;;;;;8.14;100.00;101135.25;5007082;28;20180;-70
2023/04/11 06:02:50;;;;;;;6.60;2.10;;;;;;;7.81;100.00;101081.19;5003717;28;20269;-70
2023/04/11 06:05:16;;;;;;;8.00;2.63;;;;;;;7.93;100.00;101106.50;5008689;28;21087;-70
2023/04/11 06:07:42;;;;;;;9.83;2.23;;;;;;;7.85;100.00;101113.72;5006465;28;20197;-71
2023/04/11 06:10:09;;;;;;;7.97;2.40;;;;;;;7.60;100.00;101099.63;5005373;28;20884;-70
2023/04/11 06:12:35;;;;;;;7.23;1.60;;;;;;;7.82;100.00;101154.94;5007738;28;20786;-70
2023/04/11 06:15:01;;;;;;;4.93;1.60;;;;;;;7.67;100.00;101146.81;5004424;28;20426;-70
2023/04/11 06:17:26;;;;;;;7.90;1.23;;;;;;;7.51;100.00;101130.84;5006536;28;20591;-70
2023/04/11 06:19:51;;;;;;;6.73;1.80;;;;;;;7.53;100.00;101158.22;5007213;28;20416;-70
2023/04/11 06:22:17;;;;;;;5.90;1.60;;;;;;;6.52;100.00;101006.72;5000481;28;20259;-70
2023/04/11 06:24:44;;;;;;;5.20;1.40;;;;;;;7.45;100.00;101156.38;5002256;28;20705;-70
2023/04/11 06:27:10;;;;;;;5.40;1.23;;;;;;;7.47;100.00;101142.88;4995823;28;20200;-71
2023/04/11 06:29:40;;;;;;;4.77;1.37;;;;;;;7.33;100.00;101133.75;4978995;23;20503;-72
2023/04/11 06:32:06;;;;;;;2.60;1.10;;;;;;;7.37;100.00;101164.41;4976162;28;20820;-72
2023/04/11 06:34:32;;;;;;;4.50;1.63;;;;;;;6.74;100.00;101056.66;4980996;28;20443;-71
2023/04/11 06:36:58;;;;;;;4.60;1.30;;;;;;;6.90;100.00;101122.47;4980686;28;20424;-72
2023/04/11 06:39:24;;;;;;;2.30;1.00;;;;;;;6.38;100.00;101052.69;4979307;28;20438;-73
2023/04/11 06:41:50;;;;;;;3.77;1.27;;;;;;;6.63;100.00;101101.50;4980250;28;20246;-74
2023/04/11 06:44:15;;;;;;;2.03;1.00;;;;;;;7.03;100.00;101148.63;4979273;28;20205;-74
2023/04/11 06:46:41;;;;;;;3.57;1.27;;;;;;;7.01;100.00;101166.63;4980460;28;20425;-74
2023/04/11 06:49:07;;;;;;;2.00;1.10;;;;;;;5.63;100.00;100937.22;4979347;28;20197;-74
2023/04/11 06:51:33;;;;;;;4.20;1.17;;;;;;;6.13;100.00;101027.84;4967182;28;20186;-74
2023/04/11 06:53:59;;;;;;;4.83;1.20;;;;;;;7.03;100.00;101161.97;4964494;28;20801;-73
2023/04/11 06:56:24;;;;;;;3.37;1.10;;;;;;;6.75;100.00;101118.81;4980450;28;20441;-73
2023/04/11 06:58:50;;;;;;;5.03;1.00;;;;;;;6.64;100.00;101097.81;4977753;28;20214;-73
2023/04/11 07:01:15;;;;;;;6.20;1.13;;;;;;;7.12;100.00;101205.47;4979750;28;20710;-73
2023/04/11 07:03:41;;;;;;;5.00;1.23;;;;;;;6.82;100.00;101165.13;4979162;28;20190;-73
2023/04/11 07:06:07;;;;;;;3.57;1.30;;;;;;;6.48;100.00;101125.28;4979463;28;20189;-72
2023/04/11 07:08:32;;;;;;;3.07;0.77;;;;;;;6.87;100.00;101176.13;4980966;28;20460;-73
2023/04/11 07:10:58;;;;;;;5.03;1.43;;;;;;;6.31;100.00;101114.63;4984273;28;20264;-73
2023/04/11 07:13:23;;;;;;;4.23;0.87;;;;;;;6.91;100.00;101220.13;4982705;28;20182;-73
2023/04/11 07:15:49;;;;;;;2.67;1.10;;;;;;;6.49;100.00;101154.44;4983064;28;20674;-73
2023/04/11 07:18:14;;;;;;;1.77;0.70;;;;;;;6.32;100.00;101104.78;4983592;28;20202;-73
2023/04/11 07:20:40;;;;;;;3.20;1.00;;;;;;;6.87;100.00;101236.63;4982257;28;20182;-74
2023/04/11 07:23:05;;;;;;;4.87;1.00;;;;;;;6.79;100.00;101229.44;4983590;28;20193;-73
2023/04/11 07:25:32;;;;;;;6.03;1.10;;;;;;;6.55;100.00;101167.09;4982688;28;20199;-72
2023/04/11 07:28:06;;;;;;;4.23;0.70;;;;;;;7.06;100.00;101249.66;4983166;28;20217;-72
2023/04/11 07:30:32;;;;;;;4.30;1.07;;;;;;;7.12;100.00;101257.00;4982748;28;20472;-73
2023/04/11 07:32:58;;;;;;;6.33;0.90;;;;;;;7.07;100.00;101253.16;4983183;28;20451;-72
2023/04/11 07:35:23;;;;;;;5.37;1.07;;;;;;;6.85;100.00;101220.78;4983232;28;20545;-73
2023/04/11 07:37:49;;;;;;;3.10;1.07;;;;;;;6.34;100.00;101140.94;4983491;28;20221;-72
2023/04/11 07:40:14;;;;;;;2.17;0.77;;;;;;;6.56;100.00;101215.91;4966961;28;20220;-73
2023/04/11 07:42:40;;;;;;;2.70;0.73;;;;;;;6.93;100.00;101278.63;4983852;28;20182;-72
2023/04/11 07:45:07;;;;;;;6.20;0.90;;;;;;;6.95;100.00;101268.66;4982909;28;20186;-71
2023/04/11 07:47:32;;;;;;;3.50;0.90;;;;;;;6.93;100.00;101244.78;4982383;28;20421;-71
2023/04/11 07:49:58;;;;;;;5.80;0.90;;;;;;;7.00;100.00;101290.31;4968388;28;20476;-72
2023/04/11 07:52:24;;;;;;;3.47;0.93;;;;;;;6.97;100.00;101293.31;4982795;28;20186;-72
2023/04/11 07:54:50;;;;;;;6.07;1.00;;;;;;;6.61;100.00;101240.25;4964619;28;20194;-72
2023/04/11 07:57:15;;;;;;;4.53;1.10;;;;;;;6.19;100.00;101165.69;4982641;28;20940;-73
2023/04/11 07:59:42;;;;;;;4.00;1.10;;;;;;;6.18;100.00;101170.19;4983002;28;20730;-73
2023/04/11 08:02:07;;;;;;;4.57;1.20;;;;;;;6.84;100.00;101271.63;4983189;28;20672;-72
2023/04/11 08:04:35;;;;;;;5.80;0.80;;;;;;;6.45;100.00;101184.22;4982846;28;20456;-73
2023/04/11 08:07:01;;;;;;;3.77;1.10;;;;;;;6.29;100.00;101153.06;4981840;28;20306;-73
2023/04/11 08:09:26;;;;;;;2.03;0.90;;;;;;;7.43;100.00;101291.00;4980806;28;20871;-72
2023/04/11 08:11:52;;;;;;;7.97;1.00;;;;;;;6.57;100.00;101177.63;4967955;28;20182;-73
2023/04/11 08:14:18;;;;;;;2.77;1.00;;;;;;;7.43;100.00;101297.22;4982574;28;20192;-72
2023/04/11 08:16:43;;;;;;;5.40;2.00;;;;;;;7.24;100.00;101276.19;4982885;28;20794;-72
2023/04/11 08:19:10;;;;;;;6.30;1.10;;;;;;;6.63;100.00;101178.78;4982223;28;20294;-72
2023/04/11 08:21:36;;;;;;;3.57;1.00;;;;;;;7.43;100.00;101265.19;4966980;28;20689;-72
2023/04/11 08:24:01;;;;;;;6.17;1.50;;;;;;;7.69;100.00;101294.34;4981800;28;20487;-72
2023/04/11 08:26:27;;;;;;;5.60;1.30;;;;;;;6.97;100.00;101135.94;4980098;28;20255;-71
2023/04/11 08:28:52;;;;;;;8.23;1.43;;;;;;;7.18;100.00;101197.63;4981321;28;20214;-71
2023/04/11 08:31:18;;;;;;;5.63;1.27;;;;;;;7.76;100.00;101293.69;4982140;28;20186;-72
2023/04/11 08:33:43;;;;;;;14.47;1.83;;;;;;;7.38;100.00;101238.16;4966000;28;20189;-71
2023/04/11 08:36:10;;;;;;;7.47;1.63;;;;;;;7.59;100.00;101202.91;4981285;28;20204;-71
2023/04/11 08:38:35;;;;;;;5.00;1.53;;;;;;;7.89;100.00;101260.06;4981144;28;20218;-72
2023/04/11 08:41:01;;;;;;;12.20;2.23;;;;;;;8.24;100.00;101305.22;4980731;28;20429;-71
2023/04/11 08:43:27;;;;;;;11.70;2.50;;;;;;;8.28;100.00;101293.22;4981007;28;20186;-71
2023/04/11 08:45:53;;;;;;;10.87;2.70;;;;;;;8.20;100.00;101293.22;4981423;28;20186;-71
2023/04/11 08:48:20;;;;;;;9.60;2.90;;;;;;;8.25;100.00;101310.41;4981454;28;20580;-70
2023/04/11 08:50:46;;;;;;;12.13;2.37;;;;;;;8.38;100.00;101307.19;4981082;28;20556;-71
2023/04/11 08:53:14;;;;;;;14.50;3.33;;;;;;;8.36;100.00;101286.00;4981033;28;20587;-70
2023/04/11 08:55:48;;;;;;;7.73;2.83;;;;;;;8.27;100.00;101246.91;4980347;28;20186;-70
2023/04/11 08:58:14;;;;;;;12.90;2.70;;;;;;;8.65;100.00;101292.59;4980481;28;20453;-71
2023/04/11 09:00:39;;;;;;;17.03;3.30;;;;;;;8.48;100.00;101307.88;4965791;28;20808;-70
2023/04/11 09:03:07;;;;;;;8.77;3.00;;;;;;;8.59;100.00;101303.94;4981014;28;20193;-70
2023/04/11 09:05:33;;;;;;;11.13;2.33;;;;;;;8.49;100.00;101287.31;4980919;28;20187;-70
2023/04/11 09:08:17;;;;;;;11.47;2.60;;;;;;;8.36;100.00;101259.25;4981706;28;20511;-70
2023/04/11 09:10:44;;;;;;;6.57;1.80;;;;;;;7.68;100.00;101179.69;4981121;28;20480;-69
2023/04/11 09:13:24;;;;;;;9.13;2.20;;;;;;;7.81;100.00;101201.38;4966214;28;20504;-70
2023/04/11 09:16:07;;;;;;;6.50;2.17;;;;;;;8.25;100.00;101296.22;4980194;28;20487;-70
2023/04/11 09:18:38;;;;;;;8.63;2.13;;;;;;;8.06;100.00;101297.44;4980761;28;20485;-70
2023/04/11 09:21:06;;;;;;;6.80;2.03;;;;;;;7.11;100.00;101167.28;4962921;28;20500;-71
2023/04/11 09:23:31;;;;;;;8.80;2.03;;;;;;;7.71;100.00;101243.44;4966090;28;20819;-71
2023/04/11 09:25:57;;;;;;;8.90;2.40;;;;;;;7.96;100.00;101208.66;4981224;28;20425;-70
2023/04/11 09:28:23;;;;;;;8.10;1.90;;;;;;;8.62;100.00;101268.88;4980401;28;20229;-71
2023/04/11 09:30:52;;;;;;;8.60;2.63;;;;;;;8.67;100.00;101282.53;4979282;28;20209;-71
2023/04/11 09:33:23;;;;;;;12.20;2.03;;;;;;;8.37;100.00;101254.75;4980162;28;20955;-70
2023/04/11 09:35:52;;;;;;;8.40;1.60;;;;;;;7.58;100.00;101174.56;4980544;28;20424;-71
2023/04/11 09:38:31;;;;;;;7.37;2.03;;;;;;;7.58;100.00;101264.47;4981234;28;20554;-72
2023/04/11 09:40:57;;;;;;;8.60;2.23;;;;;;;6.88;100.00;101248.94;4982197;28;20512;-73
2023/04/11 09:43:23;;;;;;;6.00;1.20;;;;;;;6.17;100.00;101101.94;4980148;28;20493;-74
2023/04/11 09:46:07;;;;;;;4.20;1.23;;;;;;;6.57;100.00;101157.13;4981086;28;20425;-73
2023/04/11 09:48:34;;;;;;;6.77;1.73;;;;;;;6.93;100.00;101210.13;4980660;28;20445;-73
2023/04/11 09:51:03;;;;;;;5.60;1.43;;;;;;;6.40;100.00;101122.63;4966122;28;20438;-73
2023/04/11 09:53:30;;;;;;;6.13;1.80;;;;;;;6.88;100.00;101184.97;4979998;28;20428;-72
2023/04/11 09:55:55;;;;;;;4.83;1.57;;;;;;;7.50;100.00;101275.19;4981169;28;20809;-73
2023/04/11 09:58:21;;;;;;;8.67;1.87;;;;;;;7.09;100.00;101205.78;4967663;28;20461;-73
2023/04/11 10:00:48;;;;;;;7.90;1.80;;;;;;;6.85;100.00;101156.78;4980477;28;20190;-72
2023/04/11 10:03:13;;;;;;;10.53;1.90;;;;;;;7.21;100.00;101154.59;4979260;28;20194;-72
2023/04/11 10:05:39;;;;;;;11.43;2.40;;;;;;;8.01;100.00;101265.06;4979145;28;20807;-72
2023/04/11 10:08:31;;;;;;;12.63;2.63;;;;;;;7.11;100.00;101091.75;4980459;28;20253;-72
2023/04/11 10:11:01;;;;;;;9.90;3.43;;;;;;;7.55;100.00;101163.38;4979216;28;20455;-72
2023/04/11 10:13:37;;;;;;;9.70;2.67;;;;;;;8.34;100.00;101282.66;4979564;28;20484;-72
2023/04/11 10:16:08;;;;;;;9.20;2.23;;;;;;;8.38;100.00;101281.31;4979271;28;20856;-71
2023/04/11 10:18:35;;;;;;;7.53;1.90;;;;;;;7.90;100.00;101215.53;4977973;28;20524;-72
2023/04/11 10:21:01;;;;;;;6.30;2.10;;;;;;;7.34;100.00;101179.94;4981359;28;20484;-72
2023/04/11 10:23:26;;;;;;;9.37;2.13;;;;;;;7.29;100.00;101175.13;4965012;28;20425;-71
2023/04/11 10:25:59;;;;;;;8.70;2.20;;;;;;;7.51;100.00;101226.94;4965575;28;20185;-71
2023/04/11 10:28:38;;;;;;;6.30;1.80;;;;;;;7.86;100.00;101264.94;4979097;28;20225;-71
2023/04/11 10:31:07;;;;;;;5.23;1.73;;;;;;;8.29;100.00;101271.63;4982440;28;20436;-71
2023/04/11 10:33:33;;;;;;;6.20;1.87;;;;;;;8.45;100.00;101310.06;4980343;28;20959;-70
2023/04/11 10:36:11;;;;;;;10.00;1.97;;;;;;;7.71;100.00;101219.41;4978767;28;20488;-71
2023/04/11 10:38:42;;;;;;;4.87;1.70;;;;;;;8.62;100.00;101333.03;4978914;28;20453;-71
2023/04/11 10:41:41;;;;;;;7.80;1.40;;;;;;;8.52;100.00;101324.38;4973900;28;20445;-70
2023/04/11 10:44:14;;;;;;;7.10;1.57;;;;;;;8.50;100.00;101331.72;4982822;28;20515;-71
2023/04/11 10:46:52;;;;;;;8.10;1.70;;;;;;;8.30;100.00;101344.63;4983253;28;20444;-71
2023/04/11 10:49:35;;;;;;;8.60;1.80;;;;;;;8.07;100.00;101340.03;4965303;28;20915;-71
2023/04/11 10:52:20;;;;;;;6.30;1.40;;;;;;;7.90;100.00;101307.16;4984405;28;20971;-70
2023/04/11 10:54:46;;;;;;;10.17;2.33;;;;;;;8.04;100.00;101348.38;4982928;28;20512;-71
2023/04/11 10:57:12;;;;;;;15.50;5.77;;;;;;;7.35;100.00;101226.97;4967131;28;20433;-70
2023/04/11 10:59:37;;;;;;;14.27;5.07;;;;;;;7.96;100.00;101350.25;4968624;28;20523;-70
2023/04/11 11:02:03;;;;;;;15.67;3.07;;;;;;;7.83;100.00;101354.22;4982891;28;20793;-70
2023/04/11 11:04:33;;;;;;;6.67;1.93;;;;;;;6.70;100.00;101177.13;4982483;28;20606;-71
2023/04/11 11:07:00;;;;;;;10.47;2.07;;;;;;;7.92;100.00;101355.06;4982843;28;20182;-70
2023/04/11 11:09:29;;;;;;;9.07;2.70;;;;;;;7.05;100.00;101258.66;4981559;28;20522;-70
2023/04/11 11:12:15;;;;;;;5.73;1.90;;;;;;;7.56;100.00;101346.56;4982314;28;20444;-71
2023/04/11 11:14:43;;;;;;;8.77;1.50;;;;;;;7.01;100.00;101298.16;4966070;28;20808;-72
2023/04/11 11:17:11;;;;;;;2.73;1.07;;;;;;;7.13;100.00;101277.31;4983304;28;20428;-71
2023/04/11 11:19:43;;;;;;;8.03;1.70;;;;;;;6.58;100.00;101181.94;4982780;28;20449;-72
2023/04/11 11:22:17;;;;;;;6.90;1.33;;;;;;;6.60;100.00;101152.47;4983445;28;20798;-72
2023/04/11 11:24:42;;;;;;;6.77;1.90;;;;;;;6.80;100.00;101177.81;4983802;28;20912;-71